Hamburg, Illinois
Current Conditions -  °F | °C
As of 5:54 PM on Monday 20 Oct 2014 (Local Time) from KSET Reporting Station
Clear Clear  
Wind Chill: 67°   Ceiling: Unl
Heat Index: 67°   Visibility: 10mi
Dew Point: 43°   Wind: 9mph
Humidity: 42%   Direction: 330°NNW
Pressure: 29.96"   Gusts: NA
Location:  39.23°N, 90.72°W
Report Text: KSET 202254Z AUTO 33008KT 10SM CLR 19/06 A2996 RMK AO1 SLP143 T01940061
Loading
Personal Weather Stations






























Interactive Weather Map
Tropical Storm Tracking
New forecast layout! Learn more

10-Day Weather Forecast

Advertisements
Track Severe Weather on mobile